Time;durP1;ratioP1;P1;durP2;ratioP2;P2;SDS_P1;SDS_P2;PMS_P1;PMS_P2;Temp;Humidity;BMP_temperature;BMP_pressure;BME280_temperature;BME280_humidity;BME280_pressure;Samples;Min_cycle;Max_cycle;Signal;HPM_P1;HPM_P2
2023/02/25 00:01:26;;;;;;;12.68;2.38;;;6.50;99.70;;;;;;5086370;28;20033;-62
2023/02/25 00:03:54;;;;;;;12.73;1.88;;;6.50;99.80;;;;;;5097205;28;20035;-61
2023/02/25 00:06:20;;;;;;;9.90;1.77;;;6.50;99.60;;;;;;5088458;28;20054;-61
2023/02/25 00:08:47;;;;;;;8.40;1.58;;;6.50;99.70;;;;;;5089470;27;20442;-61
2023/02/25 00:11:15;;;;;;;15.88;2.72;;;6.50;99.60;;;;;;5086483;28;20137;-62
2023/02/25 00:13:41;;;;;;;9.88;1.50;;;6.50;99.50;;;;;;5090752;28;20118;-65
2023/02/25 00:16:08;;;;;;;14.95;1.58;;;6.40;99.70;;;;;;5082007;28;20390;-62
2023/02/25 00:18:35;;;;;;;6.95;1.40;;;6.40;99.90;;;;;;5086489;28;20020;-61
2023/02/25 00:21:04;;;;;;;7.00;1.60;;;6.40;99.90;;;;;;5086561;28;20511;-60
2023/02/25 00:23:30;;;;;;;9.18;1.38;;;6.40;99.60;;;;;;5087950;28;20031;-61
2023/02/25 00:26:00;;;;;;;8.73;1.95;;;6.40;99.90;;;;;;5088562;28;20124;-60
2023/02/25 00:28:27;;;;;;;5.60;1.55;;;6.40;99.90;;;;;;5081955;28;20544;-61
2023/02/25 00:30:52;;;;;;;15.98;1.70;;;6.40;99.90;;;;;;5089167;28;20035;-61
2023/02/25 00:33:18;;;;;;;9.07;1.30;;;6.30;99.90;;;;;;5088142;28;20035;-60
2023/02/25 00:35:44;;;;;;;9.38;1.40;;;6.30;99.90;;;;;;5088442;28;20432;-61
2023/02/25 00:38:10;;;;;;;10.23;1.60;;;6.30;99.90;;;;;;5089017;28;20173;-61
2023/02/25 00:40:38;;;;;;;7.65;1.10;;;6.30;99.90;;;;;;5086953;28;20569;-60
2023/02/25 00:43:06;;;;;;;7.07;1.15;;;6.20;99.90;;;;;;5089423;27;20023;-61
2023/02/25 00:45:33;;;;;;;13.32;1.80;;;6.20;99.90;;;;;;5090595;28;20463;-59
2023/02/25 00:47:59;;;;;;;6.45;1.70;;;6.30;99.90;;;;;;5086484;28;20036;-62
2023/02/25 00:50:25;;;;;;;9.18;1.40;;;6.20;99.90;;;;;;5088153;28;20024;-60
2023/02/25 00:52:51;;;;;;;11.10;1.80;;;6.20;99.90;;;;;;5089515;28;20470;-62
2023/02/25 00:55:17;;;;;;;4.35;1.15;;;6.20;99.90;;;;;;5091483;28;20123;-62
2023/02/25 00:57:43;;;;;;;5.30;0.77;;;6.20;99.90;;;;;;5088630;28;20028;-62
2023/02/25 01:00:14;;;;;;;6.35;1.58;;;6.20;99.90;;;;;;5086364;28;20036;-61
2023/02/25 01:02:44;;;;;;;6.40;1.38;;;6.30;99.90;;;;;;5091270;28;20431;-62
2023/02/25 01:05:12;;;;;;;4.30;1.77;;;6.20;99.90;;;;;;5089949;28;20030;-60
2023/02/25 01:07:38;;;;;;;9.48;1.50;;;6.20;99.90;;;;;;5086773;28;20042;-61
2023/02/25 01:10:05;;;;;;;11.98;2.20;;;6.20;99.90;;;;;;5087498;28;20067;-60
2023/02/25 01:12:31;;;;;;;10.13;1.50;;;6.20;99.90;;;;;;5089864;28;20096;-62
2023/02/25 01:14:57;;;;;;;5.65;1.40;;;6.20;99.90;;;;;;5089609;28;20085;-62
2023/02/25 01:17:25;;;;;;;4.22;1.13;;;6.20;99.90;;;;;;5086906;28;20028;-62
2023/02/25 01:19:50;;;;;;;5.03;1.63;;;6.30;99.90;;;;;;5094803;28;20116;-62
2023/02/25 01:22:16;;;;;;;9.13;1.20;;;6.20;99.90;;;;;;5093110;28;20028;-61
2023/02/25 01:24:42;;;;;;;6.25;1.50;;;6.30;99.90;;;;;;5087706;28;20819;-61
2023/02/25 01:27:08;;;;;;;3.75;1.02;;;6.30;99.90;;;;;;5087343;28;20828;-62
2023/02/25 01:29:38;;;;;;;9.65;1.25;;;6.30;99.90;;;;;;5090668;28;20032;-61
2023/02/25 01:32:07;;;;;;;6.57;1.23;;;6.20;99.90;;;;;;5082985;28;20040;-61
2023/02/25 01:34:33;;;;;;;4.03;1.23;;;6.20;99.90;;;;;;5087679;28;20032;-61
2023/02/25 01:37:01;;;;;;;7.53;1.42;;;6.20;99.90;;;;;;5082195;28;20028;-61
2023/02/25 01:39:27;;;;;;;4.60;1.38;;;6.30;99.90;;;;;;5082025;28;20132;-62
2023/02/25 01:41:55;;;;;;;5.15;1.10;;;6.30;99.90;;;;;;5084911;28;20039;-62
2023/02/25 01:44:30;;;;;;;11.68;1.30;;;6.30;99.90;;;;;;5086523;28;20042;-62
2023/02/25 01:46:55;;;;;;;3.67;1.02;;;6.30;99.90;;;;;;5087998;28;20031;-62
2023/02/25 01:49:27;;;;;;;3.38;0.90;;;6.30;99.90;;;;;;5087008;28;20039;-62
2023/02/25 01:52:08;;;;;;;5.88;1.20;;;6.20;99.90;;;;;;5087768;28;20042;-62
2023/02/25 01:54:35;;;;;;;3.45;1.02;;;6.20;99.90;;;;;;5085079;28;20032;-62
2023/02/25 01:57:05;;;;;;;7.53;1.35;;;6.10;99.90;;;;;;5087630;28;20492;-62
2023/02/25 01:59:31;;;;;;;3.80;1.05;;;6.00;99.90;;;;;;5090099;28;20047;-62
2023/02/25 02:01:57;;;;;;;6.03;1.70;;;6.00;99.90;;;;;;5084090;28;20115;-62
2023/02/25 02:04:24;;;;;;;2.25;1.00;;;6.00;99.90;;;;;;5085753;28;20044;-62
2023/02/25 02:06:51;;;;;;;7.47;1.45;;;5.90;99.90;;;;;;5090652;28;20063;-61
2023/02/25 02:09:20;;;;;;;2.80;1.05;;;5.90;99.90;;;;;;5086509;28;20039;-62
2023/02/25 02:11:46;;;;;;;3.38;1.33;;;5.90;99.90;;;;;;5083563;28;20055;-62
2023/02/25 02:14:21;;;;;;;7.32;1.42;;;6.00;99.90;;;;;;5085361;28;20896;-62
2023/02/25 02:17:07;;;;;;;4.33;1.50;;;5.90;99.90;;;;;;5089065;28;20503;-62
2023/02/25 02:19:49;;;;;;;4.00;1.00;;;5.90;99.90;;;;;;5085545;28;20728;-62
2023/02/25 02:22:39;;;;;;;4.53;0.93;;;5.90;99.90;;;;;;5085192;28;20119;-61
2023/02/25 02:25:23;;;;;;;2.65;1.02;;;5.90;99.90;;;;;;5085831;28;20032;-62
2023/02/25 02:28:13;;;;;;;7.80;1.40;;;5.90;99.90;;;;;;5088997;28;20035;-62
2023/02/25 02:30:49;;;;;;;3.70;1.27;;;5.90;99.90;;;;;;5084772;28;20790;-62
2023/02/25 02:33:36;;;;;;;3.08;1.33;;;5.80;99.90;;;;;;5083912;28;20036;-62
2023/02/25 02:36:11;;;;;;;4.60;1.00;;;5.80;99.90;;;;;;5084614;28;20788;-62
2023/02/25 02:38:49;;;;;;;2.05;1.05;;;5.80;99.90;;;;;;5088093;28;20742;-62
2023/02/25 02:41:33;;;;;;;3.40;1.10;;;5.70;99.90;;;;;;5085918;28;20035;-60
2023/02/25 02:44:08;;;;;;;2.63;1.23;;;5.70;99.90;;;;;;5082876;28;20042;-62
2023/02/25 02:46:44;;;;;;;1.95;1.10;;;5.60;99.90;;;;;;5087108;28;20076;-62
2023/02/25 02:49:14;;;;;;;3.85;0.90;;;5.60;99.90;;;;;;5085332;28;20628;-62
2023/02/25 02:51:50;;;;;;;1.33;0.95;;;5.60;99.90;;;;;;5086461;28;20051;-61
2023/02/25 02:54:18;;;;;;;1.13;0.90;;;5.70;99.90;;;;;;5085969;28;20786;-62
2023/02/25 02:56:49;;;;;;;3.85;0.93;;;5.70;99.90;;;;;;5089503;28;20119;-62
2023/02/25 02:59:31;;;;;;;1.25;1.00;;;5.80;99.90;;;;;;5084881;28;20141;-62
2023/02/25 03:02:07;;;;;;;1.75;0.82;;;5.70;99.90;;;;;;5083407;28;20035;-62
2023/02/25 03:04:37;;;;;;;1.05;1.00;;;5.70;99.90;;;;;;5083638;28;20816;-60
2023/02/25 03:07:07;;;;;;;5.03;1.00;;;5.70;99.90;;;;;;5086858;28;20031;-61
2023/02/25 03:09:41;;;;;;;0.80;0.80;;;5.60;99.90;;;;;;5087745;28;20015;-62
2023/02/25 03:12:07;;;;;;;4.53;0.93;;;5.60;99.90;;;;;;5082309;28;20487;-62
2023/02/25 03:14:35;;;;;;;0.95;0.80;;;5.50;99.90;;;;;;5085086;28;20035;-61
2023/02/25 03:17:10;;;;;;;1.17;0.70;;;5.50;99.90;;;;;;5086427;28;20544;-62
2023/02/25 03:19:48;;;;;;;2.15;0.90;;;5.60;99.90;;;;;;5087090;28;20088;-61
2023/02/25 03:22:19;;;;;;;1.00;0.75;;;5.70;99.90;;;;;;5084533;28;20036;-62
2023/02/25 03:24:51;;;;;;;1.35;0.80;;;5.60;99.90;;;;;;5080544;28;20027;-61
2023/02/25 03:27:27;;;;;;;0.88;0.80;;;5.60;99.90;;;;;;5086741;28;20105;-61
2023/02/25 03:30:11;;;;;;;1.48;0.70;;;5.60;99.90;;;;;;5083670;28;20031;-62
2023/02/25 03:32:41;;;;;;;0.90;0.68;;;5.50;99.90;;;;;;5084192;28;20027;-61
2023/02/25 03:35:09;;;;;;;1.30;0.73;;;5.40;99.90;;;;;;5083321;28;20121;-61
2023/02/25 03:37:38;;;;;;;2.22;0.80;;;5.30;99.90;;;;;;5084984;28;20032;-62
2023/02/25 03:40:15;;;;;;;1.42;0.80;;;5.30;99.90;;;;;;5087968;28;20063;-62
2023/02/25 03:42:45;;;;;;;2.55;0.52;;;5.40;99.90;;;;;;5088986;28;20122;-62
2023/02/25 03:45:14;;;;;;;1.77;1.00;;;5.40;99.90;;;;;;5089035;28;20036;-61
2023/02/25 03:47:42;;;;;;;0.88;0.80;;;5.40;99.90;;;;;;5091350;28;20082;-62
2023/02/25 03:50:17;;;;;;;0.70;0.55;;;5.40;99.90;;;;;;5097405;27;20519;-62
2023/02/25 03:52:46;;;;;;;0.40;0.40;;;5.30;99.90;;;;;;5090305;28;20042;-62
2023/02/25 03:55:28;;;;;;;0.73;0.30;;;5.30;99.90;;;;;;5090181;28;20115;-62
2023/02/25 03:57:54;;;;;;;0.85;0.50;;;5.40;99.90;;;;;;5095637;28;20056;-62
2023/02/25 04:00:25;;;;;;;2.20;0.50;;;5.50;99.90;;;;;;5094335;28;20169;-62
2023/02/25 04:02:51;;;;;;;0.52;0.50;;;5.50;99.90;;;;;;5091519;28;20044;-62
2023/02/25 04:05:19;;;;;;;0.68;0.60;;;5.50;99.90;;;;;;5090249;28;20139;-62
2023/02/25 04:07:45;;;;;;;2.33;0.70;;;5.50;99.90;;;;;;5088463;28;20047;-61
2023/02/25 04:10:13;;;;;;;1.08;0.70;;;5.50;99.90;;;;;;5086459;28;20402;-62
2023/02/25 04:12:39;;;;;;;1.73;0.63;;;5.40;99.90;;;;;;5089122;28;20031;-62
2023/02/25 04:15:07;;;;;;;0.40;0.40;;;5.40;99.90;;;;;;5085744;28;20056;-60
2023/02/25 04:17:34;;;;;;;0.60;0.60;;;5.30;99.90;;;;;;5089199;28;20061;-62
2023/02/25 04:20:00;;;;;;;1.80;0.95;;;5.30;99.90;;;;;;5084742;28;20032;-61
2023/02/25 04:22:26;;;;;;;0.43;0.43;;;5.30;99.90;;;;;;5089556;28;20479;-61
2023/02/25 04:24:52;;;;;;;0.80;0.63;;;5.20;99.90;;;;;;5080450;28;20790;-62
2023/02/25 04:27:17;;;;;;;2.55;0.60;;;5.20;99.90;;;;;;5091053;28;20027;-62
2023/02/25 04:29:44;;;;;;;0.77;0.50;;;5.20;99.90;;;;;;5093731;28;20070;-61
2023/02/25 04:32:10;;;;;;;1.30;0.60;;;5.20;99.90;;;;;;5090559;28;20035;-59
2023/02/25 04:34:36;;;;;;;3.78;1.00;;;5.10;99.90;;;;;;5089680;28;20872;-61
2023/02/25 04:37:03;;;;;;;0.88;0.70;;;5.20;99.90;;;;;;5089289;28;20049;-61
2023/02/25 04:39:30;;;;;;;3.10;0.73;;;5.10;99.90;;;;;;5088778;28;20030;-62
2023/02/25 04:41:56;;;;;;;0.80;0.60;;;5.20;99.90;;;;;;5091244;28;20606;-61
2023/02/25 04:44:22;;;;;;;1.52;0.82;;;5.10;99.90;;;;;;5089546;28;20475;-62
2023/02/25 04:46:51;;;;;;;4.25;0.70;;;5.10;99.90;;;;;;5091306;28;20032;-62
2023/02/25 04:49:19;;;;;;;1.95;0.68;;;5.20;99.90;;;;;;5088145;28;20439;-59
2023/02/25 04:51:45;;;;;;;1.25;0.70;;;5.10;99.90;;;;;;5086200;28;20032;-60
2023/02/25 04:54:11;;;;;;;2.22;0.75;;;5.10;99.90;;;;;;5089600;28;20056;-62
2023/02/25 04:56:38;;;;;;;0.60;0.60;;;5.10;99.90;;;;;;5091615;28;20140;-60
2023/02/25 04:59:04;;;;;;;1.90;0.60;;;5.10;99.90;;;;;;5089078;27;20063;-61
2023/02/25 05:01:31;;;;;;;1.67;0.70;;;5.10;99.90;;;;;;5091619;28;20589;-61
2023/02/25 05:04:00;;;;;;;0.98;0.50;;;5.10;99.90;;;;;;5084523;28;20317;-62
2023/02/25 05:06:27;;;;;;;1.02;0.85;;;5.00;99.90;;;;;;5085530;28;20055;-61
2023/02/25 05:08:54;;;;;;;1.92;0.60;;;5.00;99.90;;;;;;5085165;28;20345;-61
2023/02/25 05:11:20;;;;;;;0.95;0.65;;;5.00;99.90;;;;;;5088018;28;20435;-62
2023/02/25 05:13:46;;;;;;;1.33;0.70;;;5.10;99.90;;;;;;5083165;28;20089;-61
2023/02/25 05:16:17;;;;;;;2.03;0.70;;;5.10;99.90;;;;;;5080067;28;20036;-62
2023/02/25 05:18:44;;;;;;;1.63;0.75;;;5.10;99.90;;;;;;5088350;28;20032;-61
2023/02/25 05:21:15;;;;;;;1.13;0.60;;;5.20;99.90;;;;;;5088055;28;20032;-61
2023/02/25 05:23:43;;;;;;;0.80;0.80;;;5.20;99.90;;;;;;5080939;28;20040;-62
2023/02/25 05:26:10;;;;;;;1.48;0.70;;;5.10;99.90;;;;;;5088783;28;20032;-61
2023/02/25 05:28:36;;;;;;;1.65;0.73;;;5.10;99.90;;;;;;5084076;28;20036;-62
2023/02/25 05:31:07;;;;;;;1.35;0.70;;;5.10;99.90;;;;;;5085275;28;20074;-60
2023/02/25 05:33:34;;;;;;;2.90;0.70;;;5.10;99.90;;;;;;5088995;28;20039;-61
2023/02/25 05:36:00;;;;;;;0.47;0.47;;;5.10;99.90;;;;;;5079583;28;20040;-62
2023/02/25 05:38:27;;;;;;;0.63;0.60;;;5.10;99.90;;;;;;5083158;28;20028;-61
2023/02/25 05:40:53;;;;;;;0.77;0.63;;;5.10;99.90;;;;;;5087189;28;20040;-61
2023/02/25 05:43:19;;;;;;;0.93;0.50;;;5.10;99.90;;;;;;5086258;28;20032;-61
2023/02/25 05:45:53;;;;;;;1.00;0.70;;;5.10;99.90;;;;;;5082823;28;20097;-61
2023/02/25 05:48:18;;;;;;;1.02;0.73;;;5.00;99.90;;;;;;5077071;28;20093;-60
2023/02/25 05:50:44;;;;;;;1.40;0.70;;;5.00;99.90;;;;;;5083367;28;20036;-60
2023/02/25 05:53:10;;;;;;;1.13;0.70;;;5.00;99.90;;;;;;5080880;28;20050;-61
2023/02/25 05:55:40;;;;;;;1.33;1.00;;;5.00;99.90;;;;;;5080747;28;20039;-61
2023/02/25 05:58:07;;;;;;;1.17;1.08;;;4.90;99.90;;;;;;5085399;28;20040;-62
2023/02/25 06:00:32;;;;;;;2.20;1.15;;;4.90;99.90;;;;;;5085119;28;20052;-62
2023/02/25 06:02:58;;;;;;;2.05;0.93;;;4.90;99.90;;;;;;5079426;28;20615;-62
2023/02/25 06:05:24;;;;;;;2.78;1.02;;;4.90;99.90;;;;;;5088233;28;20816;-62
2023/02/25 06:07:50;;;;;;;0.65;0.65;;;4.80;99.90;;;;;;5084898;28;20481;-61
2023/02/25 06:10:16;;;;;;;2.75;0.95;;;4.70;99.90;;;;;;5077105;28;20035;-62
2023/02/25 06:12:42;;;;;;;2.60;1.20;;;4.60;99.90;;;;;;5084607;28;20104;-61
2023/02/25 06:15:08;;;;;;;3.28;1.10;;;4.70;99.90;;;;;;5084162;28;20032;-62
2023/02/25 06:17:33;;;;;;;1.42;1.23;;;4.70;99.90;;;;;;5083873;28;20028;-62
2023/02/25 06:20:00;;;;;;;2.20;1.00;;;4.70;99.90;;;;;;5075148;28;20507;-61
2023/02/25 06:22:26;;;;;;;2.70;1.48;;;4.70;99.90;;;;;;5081983;28;20024;-62
2023/02/25 06:24:51;;;;;;;2.90;1.35;;;4.80;99.90;;;;;;5087374;28;20074;-61
2023/02/25 06:27:17;;;;;;;1.75;0.98;;;4.80;99.90;;;;;;5079989;28;20096;-62
2023/02/25 06:29:46;;;;;;;1.58;1.48;;;4.80;99.90;;;;;;5082192;28;20657;-62
2023/02/25 06:32:13;;;;;;;5.07;1.48;;;4.90;99.90;;;;;;5083468;28;20085;-61
2023/02/25 06:34:39;;;;;;;2.13;1.10;;;4.80;99.90;;;;;;5084897;28;20080;-61
2023/02/25 06:37:06;;;;;;;2.67;1.30;;;4.90;99.90;;;;;;5086189;28;20032;-61
2023/02/25 06:39:32;;;;;;;3.88;1.20;;;4.90;99.90;;;;;;5083167;28;20047;-60
2023/02/25 06:41:58;;;;;;;3.97;2.53;;;5.00;99.90;;;;;;5080887;28;20032;-60
2023/02/25 06:44:25;;;;;;;3.22;1.52;;;4.90;99.90;;;;;;5081864;28;20096;-60
2023/02/25 06:46:54;;;;;;;6.90;5.50;;;4.90;99.90;;;;;;5083157;28;20146;-62
2023/02/25 06:49:21;;;;;;;3.78;2.55;;;4.90;99.90;;;;;;5075918;28;20139;-62
2023/02/25 06:51:48;;;;;;;3.58;1.48;;;4.90;99.90;;;;;;5086009;28;20032;-62
2023/02/25 06:54:16;;;;;;;2.35;1.35;;;4.90;99.90;;;;;;5080760;28;20040;-62
2023/02/25 06:56:42;;;;;;;3.22;2.55;;;4.90;99.90;;;;;;5084194;28;20040;-62
2023/02/25 06:59:08;;;;;;;5.40;3.22;;;4.90;99.90;;;;;;5082557;28;20042;-59
2023/02/25 07:01:35;;;;;;;2.65;1.60;;;4.90;99.90;;;;;;5087051;28;20024;-63
2023/02/25 07:04:01;;;;;;;4.80;1.40;;;4.90;99.90;;;;;;5080953;28;20047;-64
2023/02/25 07:06:27;;;;;;;3.78;1.40;;;4.80;99.90;;;;;;5085265;28;20036;-60
2023/02/25 07:08:53;;;;;;;5.00;1.52;;;4.80;99.90;;;;;;5077823;28;20040;-59
2023/02/25 07:11:20;;;;;;;3.20;1.70;;;4.80;99.90;;;;;;5080057;28;20036;-61
2023/02/25 07:13:47;;;;;;;4.47;2.60;;;4.80;99.90;;;;;;5079097;28;20063;-60
2023/02/25 07:16:15;;;;;;;3.28;2.25;;;4.80;99.90;;;;;;5085217;28;20437;-62
2023/02/25 07:18:42;;;;;;;3.63;1.65;;;4.90;99.90;;;;;;5081090;28;20147;-62
2023/02/25 07:21:08;;;;;;;9.63;3.72;;;4.80;99.90;;;;;;5087849;28;20039;-63
2023/02/25 07:23:34;;;;;;;2.80;1.70;;;4.70;99.90;;;;;;5080990;28;20036;-62
2023/02/25 07:26:08;;;;;;;5.10;1.80;;;4.70;99.90;;;;;;5086902;28;20103;-62
2023/02/25 07:28:35;;;;;;;3.38;1.75;;;4.80;99.90;;;;;;5087345;28;20032;-62
2023/02/25 07:31:03;;;;;;;9.63;2.65;;;4.80;99.90;;;;;;5089109;28;20036;-61
2023/02/25 07:33:29;;;;;;;2.17;1.30;;;4.90;99.90;;;;;;5090521;28;20028;-62
2023/02/25 07:35:56;;;;;;;4.35;1.60;;;4.90;99.90;;;;;;5078333;28;20951;-63
2023/02/25 07:38:22;;;;;;;2.85;1.40;;;4.90;99.90;;;;;;5082453;28;20119;-64
2023/02/25 07:40:48;;;;;;;4.07;1.30;;;4.90;99.90;;;;;;5081179;28;20036;-62
2023/02/25 07:43:14;;;;;;;4.70;2.60;;;4.90;99.90;;;;;;5081338;28;20031;-62
2023/02/25 07:45:40;;;;;;;4.00;1.60;;;4.90;99.90;;;;;;5088544;28;20886;-60
2023/02/25 07:48:07;;;;;;;3.58;1.30;;;4.90;99.90;;;;;;5085703;28;20027;-63
2023/02/25 07:50:32;;;;;;;1.73;1.15;;;4.90;99.90;;;;;;5088030;28;20031;-63
2023/02/25 07:52:58;;;;;;;2.65;0.98;;;5.00;99.90;;;;;;5085491;28;20031;-60
2023/02/25 07:55:25;;;;;;;2.92;1.20;;;5.00;99.90;;;;;;5083084;28;20102;-59
2023/02/25 07:57:50;;;;;;;1.52;1.00;;;5.10;99.90;;;;;;5087891;28;20032;-59
2023/02/25 08:00:16;;;;;;;3.63;2.33;;;5.10;99.90;;;;;;5082492;28;20042;-62
2023/02/25 08:02:43;;;;;;;2.33;1.45;;;5.10;99.90;;;;;;5080301;28;20039;-61
2023/02/25 08:05:10;;;;;;;3.08;2.03;;;5.10;99.90;;;;;;5088568;28;20063;-59
2023/02/25 08:07:37;;;;;;;4.07;1.00;;;5.20;99.90;;;;;;5083783;28;20034;-62
2023/02/25 08:10:03;;;;;;;1.20;1.10;;;5.20;99.90;;;;;;5085204;28;20397;-62
2023/02/25 08:12:28;;;;;;;1.77;1.60;;;5.20;99.90;;;;;;5091654;28;20040;-61
2023/02/25 08:14:56;;;;;;;3.38;1.75;;;5.20;99.80;;;;;;5085850;28;20031;-61
2023/02/25 08:17:22;;;;;;;5.03;1.45;;;5.30;99.90;;;;;;5083931;28;20048;-62
2023/02/25 08:19:47;;;;;;;1.38;0.90;;;5.20;99.90;;;;;;5087095;28;20066;-61
2023/02/25 08:22:13;;;;;;;1.38;1.23;;;5.10;99.90;;;;;;5082509;28;20040;-61
2023/02/25 08:24:39;;;;;;;5.03;2.92;;;5.10;99.90;;;;;;5084130;28;20036;-62
2023/02/25 08:27:07;;;;;;;1.50;1.00;;;5.20;99.90;;;;;;5085785;28;20039;-63
2023/02/25 08:29:34;;;;;;;1.83;1.58;;;5.10;99.90;;;;;;5080328;28;20032;-62
2023/02/25 08:32:00;;;;;;;2.45;1.08;;;5.20;99.90;;;;;;5086503;28;20036;-61
2023/02/25 08:34:26;;;;;;;3.72;2.30;;;5.10;99.90;;;;;;5087072;28;20628;-62
2023/02/25 08:36:51;;;;;;;4.13;2.33;;;5.10;99.90;;;;;;5082383;28;20981;-62
2023/02/25 08:39:17;;;;;;;7.68;4.10;;;5.10;99.90;;;;;;5076859;28;20032;-62
2023/02/25 08:41:43;;;;;;;1.83;1.50;;;5.10;99.90;;;;;;5079758;28;20020;-62
2023/02/25 08:44:09;;;;;;;1.58;1.40;;;5.10;99.90;;;;;;5086950;28;20043;-62
2023/02/25 08:46:36;;;;;;;1.42;0.80;;;5.10;99.90;;;;;;5080765;28;20028;-62
2023/02/25 08:49:05;;;;;;;1.70;1.00;;;5.20;99.90;;;;;;5083888;28;20031;-60
2023/02/25 08:51:34;;;;;;;1.23;0.70;;;5.20;99.90;;;;;;5080368;28;20127;-62
2023/02/25 08:54:10;;;;;;;2.70;1.20;;;5.30;99.90;;;;;;5089366;28;20135;-61
2023/02/25 08:56:36;;;;;;;0.93;0.90;;;5.30;99.90;;;;;;5086475;28;20028;-62
2023/02/25 08:59:03;;;;;;;6.00;0.95;;;5.30;99.80;;;;;;5082107;28;20081;-62
2023/02/25 09:01:43;;;;;;;2.80;0.82;;;5.30;99.90;;;;;;5085533;28;20123;-61
2023/02/25 09:04:21;;;;;;;1.45;1.00;;;5.40;99.90;;;;;;5080829;28;20079;-62
2023/02/25 09:06:49;;;;;;;1.30;0.90;;;5.40;99.80;;;;;;5081513;28;20118;-61
2023/02/25 09:09:17;;;;;;;1.77;1.23;;;5.40;99.50;;;;;;5081336;28;20043;-61
2023/02/25 09:11:43;;;;;;;0.60;0.57;;;5.40;99.80;;;;;;5085107;28;20024;-61
2023/02/25 09:14:10;;;;;;;0.90;0.50;;;5.30;99.50;;;;;;5088491;28;20062;-61
2023/02/25 09:16:36;;;;;;;0.68;0.60;;;5.30;99.70;;;;;;5088071;28;20096;-60
2023/02/25 09:19:02;;;;;;;1.80;1.02;;;5.40;99.60;;;;;;5083728;28;20032;-60
2023/02/25 09:21:28;;;;;;;0.75;0.65;;;5.30;99.30;;;;;;5080208;28;20036;-60
2023/02/25 09:23:54;;;;;;;4.13;2.15;;;5.30;99.40;;;;;;5082522;28;20031;-61
2023/02/25 09:26:21;;;;;;;3.35;1.58;;;5.40;99.50;;;;;;5080648;28;20036;-61
2023/02/25 09:28:48;;;;;;;1.58;1.10;;;5.40;99.60;;;;;;5086765;28;20738;-61
2023/02/25 09:31:15;;;;;;;2.08;1.02;;;5.50;99.60;;;;;;5082417;28;20036;-61
2023/02/25 09:33:42;;;;;;;0.55;0.52;;;5.50;99.40;;;;;;5082697;28;20480;-61
2023/02/25 09:36:14;;;;;;;0.90;0.70;;;5.50;99.20;;;;;;5086746;28;20035;-60
2023/02/25 09:38:42;;;;;;;1.35;0.60;;;5.50;99.30;;;;;;5078443;28;20024;-60
2023/02/25 09:41:30;;;;;;;0.88;0.60;;;5.50;99.30;;;;;;5082146;28;20032;-61
2023/02/25 09:44:11;;;;;;;1.30;0.60;;;5.60;99.30;;;;;;5077165;28;20054;-60
2023/02/25 09:46:51;;;;;;;0.85;0.68;;;5.70;99.50;;;;;;5080857;28;20472;-61
2023/02/25 09:49:27;;;;;;;0.57;0.50;;;5.70;99.10;;;;;;5076956;28;20604;-61
2023/02/25 09:52:18;;;;;;;0.68;0.63;;;5.80;99.20;;;;;;5079597;28;20056;-61
2023/02/25 09:54:47;;;;;;;0.70;0.70;;;5.80;99.20;;;;;;5081203;28;20089;-60
2023/02/25 09:57:20;;;;;;;0.60;0.57;;;5.80;98.90;;;;;;5081490;28;20027;-61
2023/02/25 09:59:48;;;;;;;1.23;0.90;;;5.80;98.90;;;;;;5079167;28;20036;-61
2023/02/25 10:02:26;;;;;;;0.43;0.40;;;5.90;99.00;;;;;;5084123;28;20035;-63
2023/02/25 10:05:23;;;;;;;1.73;0.60;;;6.00;99.20;;;;;;5074270;28;20129;-60
2023/02/25 10:07:55;;;;;;;1.55;0.40;;;6.10;99.10;;;;;;5078559;28;20139;-59
2023/02/25 10:10:46;;;;;;;0.50;0.50;;;6.30;98.70;;;;;;5081561;28;20070;-63
2023/02/25 10:13:35;;;;;;;0.70;0.65;;;6.50;98.20;;;;;;5079511;28;20036;-57
2023/02/25 10:16:13;;;;;;;0.80;0.50;;;6.60;97.70;;;;;;5075438;28;20043;-63
2023/02/25 10:18:53;;;;;;;0.47;0.45;;;6.70;97.50;;;;;;5082659;28;20063;-59
2023/02/25 10:21:52;;;;;;;0.75;0.55;;;6.60;96.80;;;;;;5079295;28;20510;-60
2023/02/25 10:24:33;;;;;;;1.08;0.40;;;6.50;96.30;;;;;;5065404;28;20047;-60
2023/02/25 10:27:36;;;;;;;0.57;0.57;;;6.30;96.50;;;;;;5079451;28;20067;-61
2023/02/25 10:30:13;;;;;;;0.50;0.50;;;6.00;95.90;;;;;;5025898;28;20046;-61
2023/02/25 10:32:42;;;;;;;0.80;0.75;;;6.00;97.10;;;;;;5080274;28;20036;-61
2023/02/25 10:35:27;;;;;;;0.25;0.25;;;6.00;97.60;;;;;;5085891;28;20036;-61
2023/02/25 10:37:53;;;;;;;0.40;0.40;;;6.10;98.10;;;;;;5080798;28;20028;-61
2023/02/25 10:40:23;;;;;;;1.48;0.88;;;6.30;98.10;;;;;;5091399;28;20046;-61
2023/02/25 10:42:55;;;;;;;0.70;0.70;;;6.30;97.90;;;;;;5078189;27;20044;-61
2023/02/25 10:45:26;;;;;;;0.68;0.68;;;6.40;98.00;;;;;;5079250;28;20495;-60
2023/02/25 10:48:21;;;;;;;0.43;0.30;;;6.50;97.80;;;;;;5080735;28;20036;-60
2023/02/25 10:51:12;;;;;;;0.20;0.20;;;6.60;97.80;;;;;;5082487;28;20046;-61
2023/02/25 10:54:12;;;;;;;0.63;0.60;;;6.50;97.30;;;;;;5080933;28;20492;-61
2023/02/25 10:56:44;;;;;;;0.50;0.50;;;6.60;97.60;;;;;;5078490;28;20039;-64
2023/02/25 10:59:27;;;;;;;2.88;2.35;;;6.70;97.80;;;;;;5081858;28;20942;-61
2023/02/25 11:01:54;;;;;;;13.85;7.18;;;6.80;97.60;;;;;;5077990;28;20112;-62
2023/02/25 11:04:27;;;;;;;4.07;2.50;;;6.80;96.90;;;;;;5087653;28;20042;-61
2023/02/25 11:06:53;;;;;;;1.73;0.90;;;6.70;96.30;;;;;;5075592;28;20136;-61
2023/02/25 11:09:18;;;;;;;1.73;1.17;;;6.50;96.10;;;;;;5083576;28;20133;-61
2023/02/25 11:11:57;;;;;;;2.90;1.08;;;6.40;96.50;;;;;;5079661;28;20032;-59
2023/02/25 11:14:31;;;;;;;1.25;0.90;;;6.30;96.80;;;;;;5079299;28;20025;-61
2023/02/25 11:17:21;;;;;;;1.45;1.25;;;6.30;97.10;;;;;;5082732;28;20027;-61
2023/02/25 11:19:49;;;;;;;0.63;0.40;;;6.40;97.40;;;;;;5077250;28;20040;-60
2023/02/25 11:22:17;;;;;;;1.10;0.90;;;6.30;97.30;;;;;;5083406;28;20047;-61
2023/02/25 11:24:45;;;;;;;2.35;1.42;;;6.40;97.70;;;;;;5084827;28;20035;-61
2023/02/25 11:27:35;;;;;;;2.45;0.88;;;6.40;97.50;;;;;;5086051;28;20204;-60
2023/02/25 11:30:16;;;;;;;1.23;0.70;;;6.40;97.40;;;;;;5080592;28;20036;-61
2023/02/25 11:32:44;;;;;;;1.10;0.63;;;6.30;96.90;;;;;;5081677;28;20436;-60
2023/02/25 11:35:28;;;;;;;1.48;0.60;;;6.30;97.40;;;;;;5077195;28;20139;-60
2023/02/25 11:38:00;;;;;;;1.08;0.40;;;6.20;97.40;;;;;;5081877;28;20039;-62
2023/02/25 11:40:29;;;;;;;0.70;0.28;;;6.20;97.20;;;;;;5079387;28;20130;-62
2023/02/25 11:43:15;;;;;;;1.45;0.52;;;6.10;97.20;;;;;;5085173;28;20842;-63
2023/02/25 11:45:53;;;;;;;0.35;0.30;;;6.10;97.60;;;;;;5083855;28;20445;-61
2023/02/25 11:48:44;;;;;;;1.10;0.50;;;6.10;98.00;;;;;;5081014;28;20044;-61
2023/02/25 11:51:40;;;;;;;0.90;0.40;;;6.00;97.30;;;;;;5074070;28;20083;-60
2023/02/25 11:54:28;;;;;;;0.43;0.30;;;5.90;97.60;;;;;;5076760;28;20133;-66
2023/02/25 11:57:04;;;;;;;1.10;0.35;;;5.90;98.30;;;;;;5076254;28;20038;-61
2023/02/25 11:59:39;;;;;;;;;;;6.00;98.20;;;;;;5081443;28;20767;-61
2023/02/25 12:02:32;;;;;;;1.73;0.43;;;6.00;98.20;;;;;;5084470;28;19916;-61
2023/02/25 12:05:07;;;;;;;0.52;0.22;;;6.00;97.80;;;;;;5087833;28;20055;-59
2023/02/25 12:07:48;;;;;;;1.63;0.47;;;6.10;98.20;;;;;;5090296;28;20133;-61
2023/02/25 12:10:48;;;;;;;0.77;0.40;;;6.10;97.90;;;;;;5087484;28;20799;-60
2023/02/25 12:13:23;;;;;;;2.58;1.20;;;6.20;97.70;;;;;;5081254;28;20077;-60
2023/02/25 12:15:48;;;;;;;1.23;0.32;;;6.40;97.80;;;;;;5086853;28;20035;-60
2023/02/25 12:18:37;;;;;;;0.28;0.25;;;6.50;97.70;;;;;;5082556;28;20032;-61
2023/02/25 12:21:27;;;;;;;0.40;0.30;;;6.60;96.70;;;;;;5073652;28;20044;-61
2023/02/25 12:24:26;;;;;;;2.03;0.55;;;6.50;96.60;;;;;;5080684;28;20705;-61
2023/02/25 12:26:52;;;;;;;1.65;0.40;;;6.40;96.70;;;;;;5087224;28;20075;-60
2023/02/25 12:29:46;;;;;;;0.75;0.40;;;6.40;96.00;;;;;;5085362;28;20059;-58
2023/02/25 12:32:56;;;;;;;1.30;1.00;;;6.40;96.00;;;;;;5078967;28;20086;-61
2023/02/25 12:35:43;;;;;;;0.35;0.35;;;6.30;96.00;;;;;;5085113;28;20043;-61
2023/02/25 12:38:39;;;;;;;0.85;0.30;;;6.30;96.20;;;;;;5086033;28;20031;-62
2023/02/25 12:41:28;;;;;;;0.20;0.20;;;6.30;96.00;;;;;;5087273;28;20027;-61
2023/02/25 12:44:09;;;;;;;1.02;0.40;;;6.30;96.40;;;;;;5090910;28;20044;-61
2023/02/25 12:47:13;;;;;;;1.15;0.45;;;6.40;96.00;;;;;;5088194;28;20122;-60
2023/02/25 12:50:12;;;;;;;0.75;0.47;;;6.40;96.30;;;;;;5080020;28;20114;-62
2023/02/25 12:52:47;;;;;;;0.57;0.40;;;6.40;95.90;;;;;;5080887;28;20035;-61
2023/02/25 12:55:47;;;;;;;1.67;0.90;;;6.50;96.10;;;;;;5076468;28;20028;-61
2023/02/25 12:58:37;;;;;;;0.98;0.50;;;6.50;95.20;;;;;;5084289;28;20020;-61
2023/02/25 13:01:08;;;;;;;1.83;0.40;;;6.50;95.40;;;;;;5084891;28;20027;-63
2023/02/25 13:04:02;;;;;;;0.55;0.50;;;6.40;94.70;;;;;;5086624;28;20371;-61
2023/02/25 13:06:37;;;;;;;1.17;0.70;;;6.30;94.30;;;;;;5081532;28;20028;-61
2023/02/25 13:09:55;;;;;;;1.40;0.60;;;6.30;95.10;;;;;;5087609;28;20085;-62
2023/02/25 13:12:39;;;;;;;0.47;0.45;;;6.30;95.60;;;;;;5048154;28;20037;-62
2023/02/25 13:15:24;;;;;;;0.40;0.40;;;6.30;95.30;;;;;;5071961;28;20102;-61
2023/02/25 13:18:07;;;;;;;3.72;1.20;;;6.30;95.70;;;;;;5089639;28;20119;-60
2023/02/25 13:20:45;;;;;;;7.63;2.28;;;6.30;96.00;;;;;;5079415;28;20061;-61
2023/02/25 13:23:30;;;;;;;2.00;0.88;;;6.40;96.40;;;;;;5079721;28;20071;-62